createdAt,value
2022-11-26T00:00:44.760Z,80.97
2022-11-26T00:01:44.836Z,80.87
2022-11-26T00:02:44.905Z,80.87
2022-11-26T00:03:44.804Z,80.87
2022-11-26T00:04:44.828Z,81.07
2022-11-26T00:05:44.711Z,80.87
2022-11-26T00:06:44.725Z,81.59
2022-11-26T00:07:44.757Z,81.07
2022-11-26T00:08:44.793Z,80.87
2022-11-26T00:09:44.653Z,81.18
2022-11-26T00:10:44.672Z,81.07
2022-11-26T00:11:44.627Z,81.07
2022-11-26T00:12:44.617Z,81.59
2022-11-26T00:13:44.650Z,81.07
2022-11-26T00:14:44.652Z,80.97
2022-11-26T00:15:44.585Z,80.87
2022-11-26T00:16:44.696Z,80.87
2022-11-26T00:17:44.601Z,81.24
2022-11-26T00:18:44.557Z,81.07
2022-11-26T00:19:44.555Z,81.07
2022-11-26T00:20:44.621Z,80.87
2022-11-26T00:21:44.525Z,80.66
2022-11-26T00:22:44.501Z,81.49
2022-11-26T00:23:44.500Z,81.07
2022-11-26T00:24:44.480Z,80.93
2022-11-26T00:25:44.474Z,81.49
2022-11-26T00:26:44.506Z,80.87
2022-11-26T00:27:44.449Z,80.87
2022-11-26T00:28:44.465Z,80.76
2022-11-26T00:29:44.425Z,81.07
2022-11-26T00:30:44.417Z,80.46
2022-11-26T00:31:44.448Z,80.46
2022-11-26T00:32:44.425Z,80.35
2022-11-26T00:33:44.415Z,81.07
2022-11-26T00:34:44.387Z,81.28
2022-11-26T00:35:44.358Z,81.18
2022-11-26T00:36:44.348Z,81.18
2022-11-26T00:37:44.353Z,81.07
2022-11-26T00:38:44.353Z,80.76
2022-11-26T00:39:44.321Z,80.25
2022-11-26T00:40:44.297Z,80.35
2022-11-26T00:41:44.293Z,80.76
2022-11-26T00:42:44.304Z,81.18
2022-11-26T00:43:44.265Z,80.46
2022-11-26T00:44:44.303Z,80.76
2022-11-26T00:45:44.300Z,80.56
2022-11-26T00:46:44.249Z,81.38
2022-11-26T00:47:44.227Z,80.56
2022-11-26T00:48:44.368Z,80.76
2022-11-26T00:49:44.224Z,81.28
2022-11-26T00:50:44.225Z,80.90
2022-11-26T00:51:44.211Z,80.87
2022-11-26T00:52:44.171Z,81.01
2022-11-26T00:53:44.296Z,80.87
2022-11-26T00:54:44.149Z,81.11
2022-11-26T00:55:44.130Z,81.01
2022-11-26T00:56:44.157Z,81.11
2022-11-26T00:57:44.170Z,81.28
2022-11-26T00:58:44.108Z,80.90
2022-11-26T00:59:44.088Z,81.11
2022-11-26T01:00:44.139Z,81.28
2022-11-26T01:01:44.073Z,80.66
2022-11-26T01:02:44.164Z,81.38
2022-11-26T01:03:44.053Z,81.70
2022-11-26T01:04:44.030Z,81.07
2022-11-26T01:05:44.051Z,81.07
2022-11-26T01:06:44.018Z,80.87
2022-11-26T01:07:44.093Z,81.18
2022-11-26T01:08:44.053Z,81.18
2022-11-26T01:09:43.969Z,81.07
2022-11-26T01:10:43.976Z,80.97
2022-11-26T01:11:43.946Z,81.07
2022-11-26T01:12:43.939Z,81.07
2022-11-26T01:13:43.923Z,81.18
2022-11-26T01:14:43.960Z,80.97
2022-11-26T01:15:43.906Z,81.28
2022-11-26T01:16:43.927Z,81.07
2022-11-26T01:17:43.880Z,81.18
2022-11-26T01:18:43.868Z,81.18
2022-11-26T01:19:43.867Z,80.87
2022-11-26T01:20:43.882Z,80.87
2022-11-26T01:21:43.869Z,80.97
2022-11-26T01:22:43.830Z,81.70
2022-11-26T01:23:43.815Z,80.87
2022-11-26T01:24:43.805Z,81.49
2022-11-26T01:25:43.810Z,80.76
2022-11-26T01:26:43.801Z,81.07
2022-11-26T01:27:43.781Z,80.97
2022-11-26T01:28:43.760Z,80.97
2022-11-26T01:29:43.799Z,81.28
2022-11-26T01:30:43.739Z,81.38
2022-11-26T01:31:43.782Z,81.28
2022-11-26T01:32:43.740Z,81.18
2022-11-26T01:33:43.718Z,81.18
2022-11-26T01:34:43.680Z,81.07
2022-11-26T01:35:43.680Z,81.18
2022-11-26T01:36:43.662Z,81.18
2022-11-26T01:37:43.697Z,81.21
2022-11-26T01:38:43.705Z,81.18
2022-11-26T01:39:43.625Z,81.18
2022-11-26T01:40:43.620Z,81.18
2022-11-26T01:41:43.604Z,81.07
2022-11-26T01:42:43.594Z,81.07
2022-11-26T01:43:43.585Z,81.28
2022-11-26T01:44:43.592Z,81.07
2022-11-26T01:45:43.646Z,81.18
2022-11-26T01:46:43.553Z,80.87
2022-11-26T01:47:43.530Z,81.18
2022-11-26T01:48:43.529Z,81.07
2022-11-26T01:49:43.512Z,80.87
2022-11-26T01:50:43.579Z,80.66
2022-11-26T01:51:43.489Z,80.56
2022-11-26T01:52:43.479Z,80.56
2022-11-26T01:53:43.513Z,80.66
2022-11-26T01:54:43.455Z,80.90
2022-11-26T01:55:43.447Z,81.18
2022-11-26T01:56:43.468Z,81.32
2022-11-26T01:57:43.421Z,81.32
2022-11-26T01:58:43.407Z,81.32
2022-11-26T01:59:43.420Z,81.73
2022-11-26T02:00:43.494Z,81.42
2022-11-26T02:01:43.440Z,81.42
2022-11-26T02:02:43.581Z,81.32
2022-11-26T02:03:43.351Z,81.38
2022-11-26T02:04:43.341Z,81.63
2022-11-26T02:05:43.328Z,81.52
2022-11-26T02:06:43.317Z,81.42
2022-11-26T02:07:43.353Z,81.42
2022-11-26T02:08:43.337Z,81.52
2022-11-26T02:09:43.312Z,81.52
2022-11-26T02:10:43.274Z,81.73
2022-11-26T02:11:43.298Z,81.63
2022-11-26T02:12:43.274Z,81.42
2022-11-26T02:13:43.262Z,81.73
2022-11-26T02:14:43.259Z,81.52
2022-11-26T02:15:43.240Z,81.63
2022-11-26T02:16:43.267Z,81.63
2022-11-26T02:17:43.206Z,81.84
2022-11-26T02:18:43.218Z,81.52
2022-11-26T02:19:43.167Z,81.42
2022-11-26T02:20:43.193Z,81.73
2022-11-26T02:21:43.146Z,81.73
2022-11-26T02:22:43.157Z,81.73
2022-11-26T02:23:43.135Z,81.73
2022-11-26T02:24:43.119Z,81.63
2022-11-26T02:25:43.129Z,81.52
2022-11-26T02:26:43.174Z,81.63
2022-11-26T02:27:43.077Z,81.52
2022-11-26T02:28:43.074Z,81.32
2022-11-26T02:29:43.057Z,81.21
2022-11-26T02:30:43.050Z,81.42
2022-11-26T02:31:43.117Z,81.32
2022-11-26T02:32:43.051Z,81.28
2022-11-26T02:33:43.018Z,81.11
2022-11-26T02:34:43.406Z,81.38
2022-11-26T02:35:42.999Z,81.42
2022-11-26T02:36:42.975Z,81.01
2022-11-26T02:37:42.964Z,81.18
2022-11-26T02:38:43.027Z,81.18
2022-11-26T02:39:42.940Z,81.49
2022-11-26T02:40:42.966Z,81.59
2022-11-26T02:41:42.939Z,81.63
2022-11-26T02:42:42.912Z,81.59
2022-11-26T02:43:42.905Z,81.18
2022-11-26T02:44:42.975Z,81.18
2022-11-26T02:45:42.906Z,81.18
2022-11-26T02:46:42.883Z,81.38
2022-11-26T02:47:42.856Z,81.28
2022-11-26T02:48:42.935Z,80.97
2022-11-26T02:49:42.842Z,80.87
2022-11-26T02:50:42.841Z,80.97
2022-11-26T02:51:42.815Z,80.87
2022-11-26T02:52:42.827Z,80.97
2022-11-26T02:53:42.785Z,81.38
2022-11-26T02:54:42.839Z,81.18
2022-11-26T02:55:42.765Z,81.28
2022-11-26T02:56:42.810Z,81.28
2022-11-26T02:57:42.804Z,80.87
2022-11-26T02:58:42.739Z,80.97
2022-11-26T02:59:42.715Z,81.07
2022-11-26T03:00:42.850Z,81.07
2022-11-26T03:01:42.690Z,81.07
2022-11-26T03:02:42.697Z,80.97
2022-11-26T03:03:42.837Z,81.18
2022-11-26T03:04:42.680Z,81.18
2022-11-26T03:05:42.654Z,81.18
2022-11-26T03:06:42.634Z,81.18
2022-11-26T03:07:42.789Z,80.56
2022-11-26T03:08:42.642Z,81.07
2022-11-26T03:09:42.636Z,81.18
2022-11-26T03:10:42.591Z,81.18
2022-11-26T03:11:42.626Z,81.38
2022-11-26T03:12:42.576Z,81.28
2022-11-26T03:13:42.579Z,81.28
2022-11-26T03:14:42.563Z,81.35
2022-11-26T03:15:42.658Z,81.35
2022-11-26T03:16:42.653Z,81.24
2022-11-26T03:17:42.543Z,81.28
2022-11-26T03:18:42.500Z,81.18
2022-11-26T03:19:42.489Z,81.14
2022-11-26T03:20:42.491Z,81.07
2022-11-26T03:21:42.467Z,81.56
2022-11-26T03:22:42.489Z,81.56
2022-11-26T03:23:42.442Z,81.14
2022-11-26T03:24:42.437Z,81.56
2022-11-26T03:25:42.416Z,81.24
2022-11-26T03:26:42.428Z,81.38
2022-11-26T03:27:42.399Z,81.24
2022-11-26T03:28:42.384Z,81.24
2022-11-26T03:29:42.411Z,81.35
2022-11-26T03:30:42.361Z,81.24
2022-11-26T03:31:42.424Z,81.45
2022-11-26T03:32:42.370Z,81.24
2022-11-26T03:33:42.321Z,81.35
2022-11-26T03:34:42.321Z,81.14
2022-11-26T03:35:42.303Z,80.93
2022-11-26T03:36:42.299Z,81.14
2022-11-26T03:37:42.304Z,81.24
2022-11-26T03:38:42.307Z,81.14
2022-11-26T03:39:42.256Z,81.14
2022-11-26T03:40:42.250Z,81.28
2022-11-26T03:41:42.232Z,80.93
2022-11-26T03:42:42.246Z,80.93
2022-11-26T03:43:42.215Z,81.04
2022-11-26T03:44:42.255Z,81.04
2022-11-26T03:45:42.323Z,80.83
2022-11-26T03:46:42.176Z,80.62
2022-11-26T03:47:42.168Z,80.62
2022-11-26T03:48:42.168Z,80.73
2022-11-26T03:49:42.147Z,80.83
2022-11-26T03:50:42.172Z,81.35
2022-11-26T03:51:42.126Z,80.62
2022-11-26T03:52:42.112Z,81.04
2022-11-26T03:53:42.126Z,81.14
2022-11-26T03:54:42.089Z,81.14
2022-11-26T03:55:42.082Z,80.93
2022-11-26T03:56:42.134Z,80.93
2022-11-26T03:57:42.055Z,81.07
2022-11-26T03:58:42.057Z,81.18
2022-11-26T03:59:42.028Z,81.07
2022-11-26T04:00:42.023Z,82.00
2022-11-26T04:01:42.093Z,81.18
2022-11-26T04:02:42.048Z,81.18
2022-11-26T04:03:41.989Z,81.07
2022-11-26T04:04:41.994Z,81.49
2022-11-26T04:05:41.960Z,81.18
2022-11-26T04:06:41.953Z,81.38
2022-11-26T04:07:41.993Z,81.18
2022-11-26T04:08:41.964Z,81.38
2022-11-26T04:09:41.922Z,81.18
2022-11-26T04:10:41.919Z,81.07
2022-11-26T04:11:41.899Z,81.07
2022-11-26T04:12:41.942Z,80.97
2022-11-26T04:13:41.875Z,81.07
2022-11-26T04:14:42.150Z,81.18
2022-11-26T04:15:41.847Z,81.07
2022-11-26T04:16:41.870Z,81.18
2022-11-26T04:17:41.854Z,81.18
2022-11-26T04:18:41.854Z,80.66
2022-11-26T04:19:41.811Z,80.66
2022-11-26T04:20:41.902Z,81.18
2022-11-26T04:21:41.781Z,81.28
2022-11-26T04:22:41.779Z,81.18
2022-11-26T04:23:41.755Z,81.24
2022-11-26T04:24:41.775Z,81.38
2022-11-26T04:25:41.731Z,81.38
2022-11-26T04:26:41.837Z,81.18
2022-11-26T04:27:41.713Z,81.18
2022-11-26T04:28:41.700Z,81.28
2022-11-26T04:29:41.695Z,81.38
2022-11-26T04:30:41.685Z,81.38
2022-11-26T04:31:41.711Z,81.18
2022-11-26T04:32:41.673Z,81.35
2022-11-26T04:33:41.670Z,81.38
2022-11-26T04:34:41.716Z,81.28
2022-11-26T04:35:41.629Z,81.28
2022-11-26T04:36:41.616Z,81.07
2022-11-26T04:37:41.600Z,81.38
2022-11-26T04:38:41.656Z,81.28
2022-11-26T04:39:41.601Z,81.56
2022-11-26T04:40:41.569Z,81.38
2022-11-26T04:41:41.619Z,81.18
2022-11-26T04:42:41.544Z,81.28
2022-11-26T04:43:41.549Z,81.49
2022-11-26T04:44:41.536Z,81.38
2022-11-26T04:45:41.573Z,81.38
2022-11-26T04:46:41.501Z,81.28
2022-11-26T04:47:43.041Z,81.18
2022-11-26T04:48:41.468Z,81.38
2022-11-26T04:49:41.491Z,81.38
2022-11-26T04:50:41.513Z,81.28
2022-11-26T04:51:41.439Z,81.18
2022-11-26T04:52:41.428Z,81.18
2022-11-26T04:53:41.412Z,81.49
2022-11-26T04:54:41.403Z,81.38
2022-11-26T04:55:41.394Z,81.28
2022-11-26T04:56:41.423Z,81.18
2022-11-26T04:57:41.466Z,80.87
2022-11-26T04:58:41.359Z,80.97
2022-11-26T04:59:41.350Z,80.87
2022-11-26T05:00:41.413Z,81.18
2022-11-26T05:01:41.437Z,81.18
2022-11-26T05:02:41.368Z,80.66
2022-11-26T05:03:41.300Z,80.66
2022-11-26T05:04:41.335Z,81.28
2022-11-26T05:05:41.306Z,81.28
2022-11-26T05:06:41.287Z,80.87
2022-11-26T05:07:41.371Z,80.66
2022-11-26T05:08:41.288Z,80.56
2022-11-26T05:09:41.235Z,81.07
2022-11-26T05:10:41.249Z,81.07
2022-11-26T05:11:41.228Z,81.28
2022-11-26T05:12:41.220Z,81.28
2022-11-26T05:13:41.254Z,81.07
2022-11-26T05:14:41.212Z,81.18
2022-11-26T05:15:41.163Z,80.66
2022-11-26T05:16:41.209Z,80.66
2022-11-26T05:17:41.139Z,81.07
2022-11-26T05:18:41.134Z,81.38
2022-11-26T05:19:41.113Z,81.18
2022-11-26T05:20:41.144Z,81.28
2022-11-26T05:21:41.119Z,80.87
2022-11-26T05:22:41.118Z,80.97
2022-11-26T05:23:41.073Z,80.76
2022-11-26T05:24:41.284Z,81.18
2022-11-26T05:25:41.047Z,81.18
2022-11-26T05:26:41.077Z,80.66
2022-11-26T05:27:41.030Z,81.18
2022-11-26T05:28:41.036Z,81.28
2022-11-26T05:29:41.004Z,81.38
2022-11-26T05:30:41.007Z,81.38
2022-11-26T05:31:41.060Z,81.28
2022-11-26T05:32:40.990Z,81.18
2022-11-26T05:33:40.955Z,81.28
2022-11-26T05:34:41.214Z,81.28
2022-11-26T05:35:41.029Z,81.28
2022-11-26T05:36:40.928Z,81.28
2022-11-26T05:37:40.941Z,81.38
2022-11-26T05:38:40.931Z,81.18
2022-11-26T05:39:40.900Z,81.28
2022-11-26T05:40:40.874Z,81.38
2022-11-26T05:41:40.873Z,81.28
2022-11-26T05:42:40.935Z,81.38
2022-11-26T05:43:40.840Z,81.59
2022-11-26T05:44:41.225Z,81.38
2022-11-26T05:45:40.873Z,81.38
2022-11-26T05:46:40.815Z,81.49
2022-11-26T05:47:40.802Z,81.59
2022-11-26T05:48:40.834Z,81.49
2022-11-26T05:49:40.779Z,81.59
2022-11-26T05:50:40.802Z,81.80
2022-11-26T05:51:40.751Z,81.70
2022-11-26T05:52:40.742Z,81.59
2022-11-26T05:53:40.760Z,81.49
2022-11-26T05:54:40.947Z,81.38
2022-11-26T05:55:40.703Z,81.38
2022-11-26T05:56:40.778Z,81.70
2022-11-26T05:57:40.680Z,81.70
2022-11-26T05:58:40.701Z,81.59
2022-11-26T05:59:40.661Z,81.70
2022-11-26T06:00:40.720Z,81.70
2022-11-26T06:01:40.640Z,81.59
2022-11-26T06:02:40.813Z,81.49
2022-11-26T06:03:40.695Z,81.59
2022-11-26T06:04:40.971Z,81.59
2022-11-26T06:05:40.596Z,81.59
2022-11-26T06:06:40.584Z,81.70
2022-11-26T06:07:44.511Z,81.49
2022-11-26T06:08:40.594Z,81.59
2022-11-26T06:09:41.053Z,81.59
2022-11-26T06:10:40.538Z,81.59
2022-11-26T06:11:40.523Z,81.59
2022-11-26T06:12:40.509Z,81.49
2022-11-26T06:13:40.502Z,81.70
2022-11-26T06:14:43.372Z,81.59
2022-11-26T06:15:40.496Z,81.49
2022-11-26T06:16:40.508Z,81.59
2022-11-26T06:17:40.450Z,81.49
2022-11-26T06:18:40.444Z,81.49
2022-11-26T06:19:40.441Z,81.49
2022-11-26T06:20:40.451Z,81.70
2022-11-26T06:21:40.425Z,81.70
2022-11-26T06:22:40.402Z,81.70
2022-11-26T06:23:45.463Z,81.38
2022-11-26T06:24:41.397Z,81.80
2022-11-26T06:25:40.396Z,81.49
2022-11-26T06:26:40.397Z,81.59
2022-11-26T06:27:40.373Z,81.70
2022-11-26T06:28:40.338Z,81.70
2022-11-26T06:29:40.325Z,81.70
2022-11-26T06:30:40.304Z,81.38
2022-11-26T06:31:40.384Z,81.49
2022-11-26T06:32:40.320Z,81.35
2022-11-26T06:33:40.278Z,81.28
2022-11-26T06:34:43.782Z,81.35
2022-11-26T06:35:40.247Z,81.24
2022-11-26T06:36:40.242Z,81.18
2022-11-26T06:37:40.225Z,81.18
2022-11-26T06:38:40.242Z,80.93
2022-11-26T06:39:40.223Z,81.24
2022-11-26T06:40:40.195Z,81.38
2022-11-26T06:41:40.209Z,81.35
2022-11-26T06:42:40.206Z,80.66
2022-11-26T06:43:40.161Z,80.56
2022-11-26T06:44:40.590Z,81.14
2022-11-26T06:45:40.230Z,81.96
2022-11-26T06:46:40.196Z,80.97
2022-11-26T06:47:40.113Z,81.14
2022-11-26T06:48:40.128Z,81.04
2022-11-26T06:49:40.090Z,81.04
2022-11-26T06:50:40.236Z,80.79
2022-11-26T06:51:40.065Z,81.04
2022-11-26T06:52:40.144Z,81.04
2022-11-26T06:53:40.051Z,81.24
2022-11-26T06:54:40.572Z,81.31
2022-11-26T06:55:40.042Z,80.93
2022-11-26T06:56:40.066Z,81.82
2022-11-26T06:57:40.022Z,81.14
2022-11-26T06:58:40.077Z,81.14
2022-11-26T06:59:39.975Z,80.79
2022-11-26T07:00:40.038Z,81.21
2022-11-26T07:01:40.012Z,81.21
2022-11-26T07:02:40.028Z,81.00
2022-11-26T07:03:39.936Z,80.90
2022-11-26T07:04:40.274Z,80.90
2022-11-26T07:05:39.914Z,81.00
2022-11-26T07:06:39.912Z,80.90
2022-11-26T07:07:40.099Z,80.79
2022-11-26T07:08:39.939Z,80.79
2022-11-26T07:09:39.859Z,81.00
2022-11-26T07:10:41.213Z,80.90
2022-11-26T07:11:39.843Z,80.79
2022-11-26T07:12:39.849Z,81.37
2022-11-26T07:13:39.839Z,80.79
2022-11-26T07:14:40.157Z,80.79
2022-11-26T07:15:39.882Z,80.76
2022-11-26T07:16:39.861Z,81.07
2022-11-26T07:17:39.771Z,80.55
2022-11-26T07:18:39.780Z,81.07
2022-11-26T07:19:39.754Z,80.44
2022-11-26T07:20:39.811Z,80.86
2022-11-26T07:21:39.729Z,80.86
2022-11-26T07:22:39.722Z,80.55
2022-11-26T07:23:39.700Z,80.44
2022-11-26T07:24:40.021Z,80.04
2022-11-26T07:25:39.703Z,80.24
2022-11-26T07:26:39.709Z,80.86
2022-11-26T07:27:39.662Z,80.76
2022-11-26T07:28:39.647Z,80.86
2022-11-26T07:29:39.664Z,80.65
2022-11-26T07:30:39.710Z,80.24
2022-11-26T07:31:39.673Z,80.51
2022-11-26T07:32:39.636Z,80.62
2022-11-26T07:33:39.586Z,80.72
2022-11-26T07:34:39.714Z,80.82
2022-11-26T07:35:39.564Z,80.62
2022-11-26T07:36:39.555Z,80.82
2022-11-26T07:37:39.549Z,80.51
2022-11-26T07:38:39.606Z,80.72
2022-11-26T07:39:39.524Z,80.82
2022-11-26T07:40:39.531Z,80.68
2022-11-26T07:41:39.496Z,80.68
2022-11-26T07:42:39.550Z,80.58
2022-11-26T07:43:39.477Z,80.79
2022-11-26T07:44:39.843Z,80.79
2022-11-26T07:45:39.483Z,80.68
2022-11-26T07:46:39.521Z,80.89
2022-11-26T07:47:39.431Z,80.79
2022-11-26T07:48:39.422Z,80.89
2022-11-26T07:49:39.407Z,80.75
2022-11-26T07:50:39.474Z,80.75
2022-11-26T07:51:39.397Z,80.54
2022-11-26T07:52:39.412Z,80.75
2022-11-26T07:53:39.376Z,80.95
2022-11-26T07:54:39.695Z,80.75
2022-11-26T07:55:39.343Z,80.85
2022-11-26T07:56:39.354Z,80.75
2022-11-26T07:57:39.330Z,80.75
2022-11-26T07:58:39.311Z,80.95
2022-11-26T07:59:39.296Z,81.02
2022-11-26T08:00:39.319Z,80.91
2022-11-26T08:01:39.493Z,80.61
2022-11-26T08:02:39.439Z,80.61
2022-11-26T08:03:39.254Z,80.61
2022-11-26T08:04:39.472Z,80.61
2022-11-26T08:05:39.230Z,80.51
2022-11-26T08:06:39.230Z,80.91
2022-11-26T08:07:39.267Z,79.68
2022-11-26T08:08:39.352Z,81.23
2022-11-26T08:09:39.182Z,80.61
2022-11-26T08:10:39.176Z,81.16
2022-11-26T08:11:39.167Z,80.23
2022-11-26T08:12:39.152Z,80.65
2022-11-26T08:13:39.136Z,81.02
2022-11-26T08:14:39.415Z,80.19
2022-11-26T08:15:39.115Z,80.33
2022-11-26T08:16:39.230Z,79.88
2022-11-26T08:17:39.179Z,80.19
2022-11-26T08:18:39.087Z,80.40
2022-11-26T08:19:39.068Z,80.40
2022-11-26T08:20:39.077Z,80.09
2022-11-26T08:21:39.061Z,79.88
2022-11-26T08:22:39.037Z,79.88
2022-11-26T08:23:39.033Z,80.19
2022-11-26T08:24:39.413Z,80.40
2022-11-26T08:25:59.270Z,80.40
2022-11-26T08:26:44.168Z,80.61
2022-11-26T08:27:38.989Z,80.61
2022-11-26T08:28:38.975Z,80.71
2022-11-26T08:29:38.984Z,80.40
2022-11-26T08:30:38.948Z,80.26
2022-11-26T08:31:44.898Z,80.26
2022-11-26T08:32:39.953Z,80.36
2022-11-26T08:33:38.938Z,80.47
2022-11-26T08:34:39.245Z,80.47
2022-11-26T08:36:05.547Z,80.57
2022-11-26T08:36:39.880Z,80.26
2022-11-26T08:37:38.869Z,80.36
2022-11-26T08:38:38.989Z,80.33
2022-11-26T08:39:38.845Z,80.43
2022-11-26T08:40:38.852Z,80.22
2022-11-26T08:41:38.821Z,79.91
2022-11-26T08:42:38.823Z,80.02
2022-11-26T08:44:40.324Z,80.19
2022-11-26T08:45:38.770Z,79.98
2022-11-26T08:46:38.867Z,80.08
2022-11-26T08:47:38.759Z,79.88
2022-11-26T08:48:38.796Z,79.36
2022-11-26T08:49:38.754Z,79.26
2022-11-26T08:50:38.754Z,79.67
2022-11-26T08:51:38.731Z,79.43
2022-11-26T08:52:38.726Z,79.43
2022-11-26T08:53:38.707Z,79.84
2022-11-26T08:54:43.463Z,79.43
2022-11-26T08:55:59.299Z,79.43
2022-11-26T08:56:39.654Z,79.43
2022-11-26T08:57:38.649Z,79.63
2022-11-26T08:58:38.631Z,78.92
2022-11-26T08:59:38.644Z,79.74
2022-11-26T09:00:38.610Z,79.63
2022-11-26T09:01:38.741Z,79.43
2022-11-26T09:02:38.652Z,79.19
2022-11-26T09:03:38.598Z,79.29
2022-11-26T09:04:38.753Z,79.29
2022-11-26T09:05:38.651Z,79.19
2022-11-26T09:06:38.533Z,79.29
2022-11-26T09:07:38.640Z,79.29
2022-11-26T09:08:38.528Z,79.19
2022-11-26T09:09:38.507Z,79.60
2022-11-26T09:10:38.502Z,79.29
2022-11-26T09:11:38.481Z,79.08
2022-11-26T09:12:38.467Z,79.29
2022-11-26T09:13:38.476Z,79.19
2022-11-26T09:14:38.723Z,79.05
2022-11-26T09:15:38.442Z,79.15
2022-11-26T09:16:38.506Z,79.25
2022-11-26T09:17:38.413Z,79.39
2022-11-26T09:18:38.408Z,78.94
2022-11-26T09:19:38.435Z,79.46
2022-11-26T09:20:38.381Z,79.46
2022-11-26T09:21:38.406Z,79.46
2022-11-26T09:22:38.358Z,79.36
2022-11-26T09:23:38.352Z,79.15
2022-11-26T09:24:38.649Z,79.25
2022-11-26T09:25:38.451Z,79.46
2022-11-26T09:26:38.319Z,79.46
2022-11-26T09:27:38.307Z,79.25
2022-11-26T09:28:38.306Z,79.42
2022-11-26T09:29:38.288Z,79.22
2022-11-26T09:30:38.269Z,79.22
2022-11-26T09:31:55.021Z,79.22
2022-11-26T09:32:39.304Z,79.42
2022-11-26T09:33:38.233Z,79.32
2022-11-26T09:34:38.837Z,79.32
2022-11-26T09:35:38.232Z,79.38
2022-11-26T09:36:38.205Z,79.08
2022-11-26T09:37:38.349Z,79.18
2022-11-26T09:38:38.179Z,79.08
2022-11-26T09:39:38.168Z,79.38
2022-11-26T09:40:38.151Z,79.28
2022-11-26T09:41:38.144Z,79.18
2022-11-26T09:42:38.136Z,79.08
2022-11-26T09:43:38.169Z,79.18
2022-11-26T09:44:38.527Z,79.28
2022-11-26T09:45:38.208Z,79.28
2022-11-26T09:46:50.993Z,79.38
2022-11-26T09:47:39.075Z,78.77
2022-11-26T09:48:38.064Z,79.28
2022-11-26T09:49:38.072Z,78.94
2022-11-26T09:50:38.067Z,79.08
2022-11-26T09:51:38.034Z,79.45
2022-11-26T09:52:38.011Z,79.38
2022-11-26T09:53:38.033Z,79.18
2022-11-26T09:54:38.385Z,79.38
2022-11-26T09:55:38.017Z,79.24
2022-11-26T09:56:37.975Z,79.14
2022-11-26T09:57:37.961Z,79.14
2022-11-26T09:58:37.954Z,79.24
2022-11-26T09:59:37.950Z,79.45
2022-11-26T10:00:37.935Z,79.55
2022-11-26T10:01:38.023Z,79.24
2022-11-26T10:02:38.061Z,79.24
2022-11-26T10:03:37.909Z,79.24
2022-11-26T10:04:38.418Z,79.45
2022-11-26T10:05:37.867Z,79.35
2022-11-26T10:06:37.860Z,78.74
2022-11-26T10:07:37.935Z,79.14
2022-11-26T10:08:37.833Z,79.24
2022-11-26T10:09:37.937Z,79.00
2022-11-26T10:10:37.810Z,79.21
2022-11-26T10:11:37.810Z,79.21
2022-11-26T10:12:56.260Z,79.21
2022-11-26T10:13:38.807Z,79.31
2022-11-26T10:14:38.056Z,79.31
2022-11-26T10:15:37.779Z,79.17
2022-11-26T10:16:37.799Z,79.07
2022-11-26T10:17:37.737Z,78.97
2022-11-26T10:18:37.727Z,79.17
2022-11-26T10:19:37.745Z,78.97
2022-11-26T10:20:37.703Z,78.76
2022-11-26T10:21:58.083Z,78.72
2022-11-26T10:22:38.693Z,78.21
2022-11-26T10:23:37.692Z,78.31
2022-11-26T10:24:37.993Z,78.08
2022-11-26T10:25:37.704Z,78.28
2022-11-26T10:26:37.637Z,78.38
2022-11-26T10:27:37.619Z,78.17
2022-11-26T10:28:37.611Z,78.38
2022-11-26T10:29:37.599Z,78.89
2022-11-26T10:30:37.637Z,79.20
2022-11-26T10:31:37.732Z,79.20
2022-11-26T10:32:37.587Z,79.00
2022-11-26T10:33:37.552Z,79.00
2022-11-26T10:34:39.216Z,78.89
2022-11-26T10:35:37.533Z,78.89
2022-11-26T10:36:37.517Z,79.20
2022-11-26T10:37:37.544Z,79.10
2022-11-26T10:38:37.516Z,79.16
2022-11-26T10:39:37.481Z,79.06
2022-11-26T10:40:37.520Z,79.16
2022-11-26T10:41:37.480Z,78.96
2022-11-26T10:42:37.447Z,78.86
2022-11-26T10:43:37.541Z,78.75
2022-11-26T10:44:37.721Z,78.96
2022-11-26T10:45:37.468Z,78.86
2022-11-26T10:46:37.425Z,79.00
2022-11-26T10:47:37.392Z,79.16
2022-11-26T10:48:37.380Z,79.20
2022-11-26T10:49:37.473Z,79.06
2022-11-26T10:50:47.613Z,79.10
2022-11-26T10:51:38.378Z,79.10
2022-11-26T10:52:37.338Z,79.41
2022-11-26T10:53:37.355Z,79.47
2022-11-26T10:54:37.721Z,79.88
2022-11-26T10:55:37.405Z,80.02
2022-11-26T10:56:37.289Z,79.91
2022-11-26T10:57:37.310Z,79.91
2022-11-26T10:58:37.263Z,79.71
2022-11-26T10:59:37.853Z,79.91
2022-11-26T11:00:37.297Z,79.61
2022-11-26T11:01:37.311Z,80.53
2022-11-26T11:02:37.292Z,80.53
2022-11-26T11:04:38.202Z,79.50
2022-11-26T11:05:37.178Z,80.43
2022-11-26T11:06:37.177Z,80.43
2022-11-26T11:07:37.239Z,80.22
2022-11-26T11:08:37.150Z,80.33
2022-11-26T11:09:37.145Z,80.33
2022-11-26T11:10:37.157Z,80.22
2022-11-26T11:11:37.147Z,80.22
2022-11-26T11:12:37.104Z,80.36
2022-11-26T11:13:37.199Z,80.36
2022-11-26T11:14:42.250Z,80.46
2022-11-26T11:15:38.071Z,80.46
2022-11-26T11:16:37.203Z,80.46
2022-11-26T11:17:37.061Z,80.57
2022-11-26T11:18:37.038Z,80.46
2022-11-26T11:19:37.092Z,80.36
2022-11-26T11:20:37.039Z,80.26
2022-11-26T11:21:36.996Z,80.02
2022-11-26T11:22:37.062Z,80.02
2022-11-26T11:24:06.459Z,80.12
2022-11-26T11:24:38.060Z,79.82
2022-11-26T11:25:36.956Z,79.50
2022-11-26T11:26:36.944Z,79.91
2022-11-26T11:27:36.929Z,79.91
2022-11-26T11:28:36.925Z,79.91
2022-11-26T11:29:36.941Z,80.02
2022-11-26T11:30:36.934Z,79.85
2022-11-26T11:31:37.009Z,79.82
2022-11-26T11:32:36.876Z,80.16
2022-11-26T11:33:36.863Z,80.02
2022-11-26T11:34:37.180Z,80.16
2022-11-26T11:35:36.866Z,79.82
2022-11-26T11:36:36.905Z,79.96
2022-11-26T11:37:36.823Z,80.05
2022-11-26T11:38:36.826Z,79.71
2022-11-26T11:39:36.802Z,79.91
2022-11-26T11:40:36.836Z,79.61
2022-11-26T11:41:36.775Z,79.71
2022-11-26T11:42:36.780Z,79.82
2022-11-26T11:43:36.749Z,79.61
2022-11-26T11:44:37.073Z,80.02
2022-11-26T11:45:36.805Z,79.82
2022-11-26T11:46:36.719Z,80.12
2022-11-26T11:47:36.713Z,80.02
2022-11-26T11:48:36.724Z,80.08
2022-11-26T11:49:36.699Z,79.88
2022-11-26T11:50:36.669Z,80.12
2022-11-26T11:51:36.722Z,79.91
2022-11-26T11:52:36.680Z,79.88
2022-11-26T11:53:36.640Z,80.22
2022-11-26T11:54:37.177Z,80.08
2022-11-26T11:55:36.615Z,79.98
2022-11-26T11:56:36.617Z,79.98
2022-11-26T11:57:36.584Z,80.08
2022-11-26T11:58:36.592Z,79.78
2022-11-26T11:59:36.566Z,79.47
2022-11-26T12:00:36.611Z,79.68
2022-11-26T12:01:36.616Z,79.78
2022-11-26T12:02:36.641Z,79.47
2022-11-26T12:03:36.520Z,79.71
2022-11-26T12:04:36.859Z,79.68
2022-11-26T12:05:36.562Z,80.08
2022-11-26T12:06:36.517Z,79.98
2022-11-26T12:07:36.727Z,79.98
2022-11-26T12:08:36.458Z,79.88
2022-11-26T12:09:36.456Z,79.88
2022-11-26T12:10:36.436Z,79.78
2022-11-26T12:11:36.455Z,79.37
2022-11-26T12:12:36.436Z,79.37
2022-11-26T12:13:36.423Z,79.41
2022-11-26T12:14:36.402Z,79.37
2022-11-26T12:15:36.380Z,79.88
2022-11-26T12:16:36.461Z,80.63
2022-11-26T12:17:36.580Z,80.83
2022-11-26T12:18:36.388Z,80.02
2022-11-26T12:19:36.347Z,80.02
2022-11-26T12:20:36.334Z,80.53
2022-11-26T12:21:36.323Z,80.43
2022-11-26T12:22:36.300Z,80.02
2022-11-26T12:23:36.291Z,80.12
2022-11-26T12:24:36.513Z,80.12
2022-11-26T12:25:37.269Z,80.33
2022-11-26T12:26:36.288Z,80.22
2022-11-26T12:27:36.249Z,80.22
2022-11-26T12:28:36.233Z,80.33
2022-11-26T12:29:36.226Z,80.43
2022-11-26T12:30:36.246Z,80.33
2022-11-26T12:31:36.251Z,80.33
2022-11-26T12:32:36.197Z,80.46
2022-11-26T12:33:36.229Z,80.36
2022-11-26T12:34:36.207Z,80.26
2022-11-26T12:35:36.160Z,80.16
2022-11-26T12:36:36.196Z,80.26
2022-11-26T12:37:36.138Z,80.05
2022-11-26T12:38:36.131Z,80.16
2022-11-26T12:39:36.139Z,80.26
2022-11-26T12:40:36.133Z,80.26
2022-11-26T12:41:36.089Z,80.36
2022-11-26T12:42:36.111Z,80.36
2022-11-26T12:43:36.107Z,80.40
2022-11-26T12:44:36.065Z,80.36
2022-11-26T12:45:36.123Z,80.36
2022-11-26T12:46:36.032Z,80.30
2022-11-26T12:47:36.044Z,80.51
2022-11-26T12:48:36.034Z,80.40
2022-11-26T12:49:36.020Z,80.36
2022-11-26T12:50:38.086Z,80.51
2022-11-26T12:51:35.985Z,80.19
2022-11-26T12:52:35.963Z,80.09
2022-11-26T12:53:35.960Z,80.40
2022-11-26T12:54:36.031Z,80.40